createdAt,value
2019-02-24T00:00:10.121Z,38.90
2019-02-24T00:02:39.585Z,38.13
2019-02-24T00:05:09.139Z,27.93
2019-02-24T00:07:38.585Z,35.80
2019-02-24T00:10:08.196Z,36.10
2019-02-24T00:12:37.682Z,33.03
2019-02-24T00:15:09.046Z,28.07
2019-02-24T00:17:38.681Z,26.33
2019-02-24T00:20:08.340Z,24.80
2019-02-24T00:22:37.821Z,32.40
2019-02-24T00:25:07.313Z,32.00
2019-02-24T00:27:36.844Z,32.50
2019-02-24T00:30:08.053Z,34.10
2019-02-24T00:32:37.496Z,37.87
2019-02-24T00:35:07.548Z,30.70
2019-02-24T00:37:37.068Z,35.03
2019-02-24T00:40:08.370Z,31.47
2019-02-24T00:42:37.838Z,35.10
2019-02-24T00:45:08.874Z,25.07
2019-02-24T00:47:38.343Z,28.50
2019-02-24T00:50:09.938Z,30.43
2019-02-24T00:52:39.399Z,25.77
2019-02-24T00:55:09.221Z,25.57
2019-02-24T00:57:38.756Z,29.17
2019-02-24T01:00:11.298Z,38.10
2019-02-24T01:02:40.786Z,35.20
2019-02-24T01:05:10.679Z,26.67
2019-02-24T01:07:40.156Z,25.67
2019-02-24T01:10:10.661Z,28.37
2019-02-24T01:12:40.135Z,26.60
2019-02-24T01:15:11.286Z,25.90
2019-02-24T01:17:40.776Z,24.93
2019-02-24T01:20:10.943Z,27.40
2019-02-24T01:22:40.447Z,30.93
2019-02-24T01:25:09.941Z,30.90
2019-02-24T01:27:39.400Z,30.07
2019-02-24T01:30:11.390Z,27.73
2019-02-24T01:32:40.894Z,26.10
2019-02-24T01:35:10.455Z,29.70
2019-02-24T01:37:39.935Z,25.47
2019-02-24T01:40:10.095Z,24.50
2019-02-24T01:42:39.543Z,27.63
2019-02-24T01:45:09.536Z,31.93
2019-02-24T01:47:39.016Z,33.80
2019-02-24T01:50:09.935Z,24.37
2019-02-24T01:52:39.450Z,25.50
2019-02-24T01:55:08.987Z,32.30
2019-02-24T01:57:38.457Z,33.43
2019-02-24T02:00:10.778Z,22.97
2019-02-24T02:02:40.244Z,23.60
2019-02-24T02:05:09.929Z,23.63
2019-02-24T02:07:39.388Z,24.83
2019-02-24T02:10:09.011Z,23.67
2019-02-24T02:12:38.501Z,38.10
2019-02-24T02:15:08.667Z,37.83
2019-02-24T02:17:41.153Z,41.20
2019-02-24T02:20:10.931Z,41.40
2019-02-24T02:22:40.473Z,36.67
2019-02-24T02:25:10.547Z,32.07
2019-02-24T02:27:40.012Z,30.07
2019-02-24T02:30:11.601Z,32.57
2019-02-24T02:32:41.088Z,30.00
2019-02-24T02:35:10.605Z,25.87
2019-02-24T02:37:40.088Z,32.43
2019-02-24T02:40:09.925Z,27.47
2019-02-24T02:42:39.387Z,33.07
2019-02-24T02:45:09.881Z,30.40
2019-02-24T02:47:39.348Z,27.23
2019-02-24T02:50:08.809Z,28.80
2019-02-24T02:52:38.299Z,25.93
2019-02-24T02:55:08.094Z,29.90
2019-02-24T02:57:37.595Z,30.77
2019-02-24T03:00:14.390Z,28.97
2019-02-24T03:02:43.845Z,37.03
2019-02-24T03:05:13.374Z,40.73
2019-02-24T03:07:44.476Z,24.00
2019-02-24T03:10:13.922Z,27.57
2019-02-24T03:12:43.413Z,25.83
2019-02-24T03:15:12.910Z,28.60
2019-02-24T03:17:42.367Z,37.87
2019-02-24T03:20:11.858Z,26.00
2019-02-24T03:22:41.317Z,35.13
2019-02-24T03:25:10.800Z,34.90
2019-02-24T03:27:40.281Z,40.27
2019-02-24T03:30:10.803Z,27.17
2019-02-24T03:32:40.259Z,34.47
2019-02-24T03:35:09.883Z,32.10
2019-02-24T03:37:39.334Z,27.20
2019-02-24T03:40:09.342Z,35.07
2019-02-24T03:42:38.814Z,35.43
2019-02-24T03:45:10.418Z,38.43
2019-02-24T03:47:39.881Z,42.43
2019-02-24T03:50:10.377Z,39.13
2019-02-24T03:52:39.879Z,45.27
2019-02-24T03:55:09.328Z,34.60
2019-02-24T03:57:38.888Z,31.43
2019-02-24T04:00:08.995Z,35.63
2019-02-24T04:02:38.503Z,40.87
2019-02-24T04:05:07.947Z,36.73
2019-02-24T04:07:37.455Z,36.30
2019-02-24T04:10:07.958Z,32.17
2019-02-24T04:12:37.491Z,28.47
2019-02-24T04:15:07.329Z,35.60
2019-02-24T04:17:36.798Z,30.87
2019-02-24T04:20:06.901Z,31.37
2019-02-24T04:22:36.362Z,30.30
2019-02-24T04:25:06.185Z,32.30
2019-02-24T04:27:35.632Z,26.90
2019-02-24T04:30:06.244Z,36.00
2019-02-24T04:32:35.698Z,31.47
2019-02-24T04:35:05.958Z,29.67
2019-02-24T04:37:35.432Z,34.77
2019-02-24T04:40:06.938Z,38.97
2019-02-24T04:42:36.390Z,30.20
2019-02-24T04:45:06.698Z,27.77
2019-02-24T04:47:36.153Z,40.20
2019-02-24T04:50:06.676Z,39.23
2019-02-24T04:52:36.149Z,44.50
2019-02-24T04:55:06.661Z,35.40
2019-02-24T04:57:36.189Z,25.80
2019-02-24T05:00:09.068Z,29.90
2019-02-24T05:02:38.518Z,30.00
2019-02-24T05:05:08.013Z,31.87
2019-02-24T05:07:37.534Z,27.27
2019-02-24T05:10:07.732Z,26.67
2019-02-24T05:12:37.231Z,34.30
2019-02-24T05:15:07.312Z,38.33
2019-02-24T05:17:38.660Z,29.40
2019-02-24T05:20:09.213Z,30.30
2019-02-24T05:22:38.782Z,34.87
2019-02-24T05:25:08.301Z,32.90
2019-02-24T05:27:37.766Z,26.77
2019-02-24T05:30:07.583Z,36.53
2019-02-24T05:32:37.041Z,34.70
2019-02-24T05:35:06.783Z,42.03
2019-02-24T05:37:36.317Z,40.20
2019-02-24T05:40:06.817Z,43.77
2019-02-24T05:42:36.278Z,42.13
2019-02-24T05:45:07.008Z,51.87
2019-02-24T05:47:36.478Z,54.60
2019-02-24T05:50:07.234Z,41.53
2019-02-24T05:52:36.690Z,46.50
2019-02-24T05:55:07.524Z,41.20
2019-02-24T05:57:37.014Z,41.70
2019-02-24T06:00:07.477Z,41.80
2019-02-24T06:02:36.922Z,42.23
2019-02-24T06:05:06.807Z,40.23
2019-02-24T06:07:36.285Z,37.37
2019-02-24T06:10:06.783Z,28.97
2019-02-24T06:12:36.254Z,30.20
2019-02-24T06:15:07.211Z,36.67
2019-02-24T06:17:36.705Z,31.43
2019-02-24T06:20:06.615Z,31.80
2019-02-24T06:22:37.147Z,37.10
2019-02-24T06:25:07.068Z,32.07
2019-02-24T06:27:36.601Z,33.07
2019-02-24T06:30:08.378Z,44.77
2019-02-24T06:32:37.856Z,39.70
2019-02-24T06:35:08.766Z,28.83
2019-02-24T06:37:38.287Z,33.13
2019-02-24T06:40:08.808Z,28.87
2019-02-24T06:42:38.258Z,40.63
2019-02-24T06:45:10.045Z,36.60
2019-02-24T06:47:39.487Z,31.70
2019-02-24T06:50:10.371Z,28.00
2019-02-24T06:52:39.877Z,27.33
2019-02-24T06:55:10.139Z,31.50
2019-02-24T06:57:39.599Z,47.33
2019-02-24T07:00:14.190Z,32.03
2019-02-24T07:02:42.386Z,28.30
2019-02-24T07:05:11.858Z,27.63
2019-02-24T07:07:41.345Z,33.57
2019-02-24T07:10:10.850Z,35.67
2019-02-24T07:12:40.334Z,38.80
2019-02-24T07:15:10.435Z,43.23
2019-02-24T07:17:39.919Z,28.57
2019-02-24T07:20:10.449Z,31.23
2019-02-24T07:22:39.939Z,36.30
2019-02-24T07:25:09.418Z,45.03
2019-02-24T07:27:38.861Z,45.83
2019-02-24T07:30:10.385Z,48.07
2019-02-24T07:32:39.839Z,44.30
2019-02-24T07:35:09.328Z,37.53
2019-02-24T07:37:38.786Z,47.10
2019-02-24T07:40:08.266Z,36.67
2019-02-24T07:42:37.723Z,47.63
2019-02-24T07:45:08.956Z,45.10
2019-02-24T07:47:38.433Z,45.87
2019-02-24T07:50:09.672Z,39.90
2019-02-24T07:52:39.130Z,43.53
2019-02-24T07:55:08.691Z,42.70
2019-02-24T07:57:38.166Z,42.43
2019-02-24T08:00:11.239Z,42.40
2019-02-24T08:02:40.720Z,38.90
2019-02-24T08:05:10.236Z,39.63
2019-02-24T08:07:39.700Z,39.33
2019-02-24T08:10:09.441Z,37.67
2019-02-24T08:12:38.938Z,40.07
2019-02-24T08:15:10.293Z,34.83
2019-02-24T08:17:39.763Z,38.10
2019-02-24T08:20:10.401Z,32.43
2019-02-24T08:22:39.954Z,31.43
2019-02-24T08:25:09.566Z,28.10
2019-02-24T08:27:39.017Z,30.07
2019-02-24T08:30:12.044Z,32.60
2019-02-24T08:32:41.496Z,31.90
2019-02-24T08:35:10.985Z,31.20
2019-02-24T08:37:40.442Z,29.00
2019-02-24T08:40:10.274Z,24.87
2019-02-24T08:42:39.730Z,26.30
2019-02-24T08:45:10.841Z,26.47
2019-02-24T08:47:40.395Z,29.63
2019-02-24T08:50:11.476Z,28.03
2019-02-24T08:52:41.036Z,26.73
2019-02-24T08:55:10.518Z,25.83
2019-02-24T08:57:40.003Z,24.47
2019-02-24T09:00:16.677Z,23.70
2019-02-24T09:02:46.144Z,24.63
2019-02-24T09:05:15.883Z,25.20
2019-02-24T09:07:45.335Z,24.50
2019-02-24T09:10:14.900Z,22.30
2019-02-24T09:12:44.393Z,19.60
2019-02-24T09:15:15.456Z,20.00
2019-02-24T09:17:44.953Z,21.37
2019-02-24T09:20:15.030Z,22.40
2019-02-24T09:22:44.980Z,19.30
2019-02-24T09:25:14.612Z,20.17
2019-02-24T09:27:44.055Z,19.80
2019-02-24T09:30:14.773Z,18.37
2019-02-24T09:32:44.251Z,16.53
2019-02-24T09:35:13.692Z,17.47
2019-02-24T09:37:43.327Z,19.03
2019-02-24T09:40:13.536Z,21.20
2019-02-24T09:42:42.984Z,20.33
2019-02-24T09:45:13.706Z,19.13
2019-02-24T09:47:46.912Z,17.80
2019-02-24T09:50:14.350Z,17.50
2019-02-24T09:52:45.519Z,16.50
2019-02-24T09:55:15.046Z,16.30
2019-02-24T09:57:44.495Z,15.77
2019-02-24T10:00:16.490Z,17.10
2019-02-24T10:02:45.932Z,16.53
2019-02-24T10:05:15.393Z,13.90
2019-02-24T10:07:44.981Z,26.97
2019-02-24T10:10:16.001Z,19.00
2019-02-24T10:12:45.523Z,16.90
2019-02-24T10:15:15.827Z,23.80
2019-02-24T10:17:45.270Z,23.73
2019-02-24T10:20:15.168Z,21.17
2019-02-24T10:22:44.669Z,33.30
2019-02-24T10:25:14.200Z,30.13
2019-02-24T10:27:43.660Z,18.53
2019-02-24T10:30:15.795Z,19.53
2019-02-24T10:32:45.246Z,18.90
2019-02-24T10:35:14.772Z,19.83
2019-02-24T10:37:44.267Z,17.43
2019-02-24T10:40:17.815Z,19.40
2019-02-24T10:42:47.271Z,19.03
2019-02-24T10:45:18.960Z,18.23
2019-02-24T10:47:48.418Z,18.47
2019-02-24T10:50:18.605Z,16.70
2019-02-24T10:52:48.148Z,15.00
2019-02-24T10:55:17.835Z,15.80
2019-02-24T10:57:47.284Z,17.90
2019-02-24T11:00:19.838Z,13.33
2019-02-24T11:02:49.290Z,17.00
2019-02-24T11:05:18.743Z,15.53
2019-02-24T11:07:48.236Z,17.90
2019-02-24T11:10:17.693Z,17.60
2019-02-24T11:12:47.698Z,15.97
2019-02-24T11:15:17.184Z,18.13
2019-02-24T11:17:46.690Z,14.27
2019-02-24T11:20:18.064Z,13.60
2019-02-24T11:22:47.621Z,15.43
2019-02-24T11:25:17.080Z,12.57
2019-02-24T11:27:46.567Z,13.47
2019-02-24T11:30:16.577Z,15.37
2019-02-24T11:32:46.037Z,18.00
2019-02-24T11:35:15.532Z,15.37
2019-02-24T11:37:44.961Z,13.77
2019-02-24T11:40:19.539Z,13.47
2019-02-24T11:42:49.371Z,15.03
2019-02-24T11:45:18.855Z,14.17
2019-02-24T11:47:48.313Z,14.20
2019-02-24T11:50:17.789Z,16.80
2019-02-24T11:52:47.263Z,14.77
2019-02-24T11:55:16.825Z,15.80
2019-02-24T11:57:46.310Z,13.73
2019-02-24T12:00:18.737Z,12.63
2019-02-24T12:02:49.753Z,13.27
2019-02-24T12:05:19.218Z,14.57
2019-02-24T12:07:48.718Z,16.40
2019-02-24T12:10:18.167Z,12.90
2019-02-24T12:12:47.653Z,12.50
2019-02-24T12:15:17.148Z,25.33
2019-02-24T12:17:46.593Z,13.17
2019-02-24T12:20:16.235Z,14.40
2019-02-24T12:22:45.713Z,12.17
2019-02-24T12:25:15.191Z,11.40
2019-02-24T12:27:44.683Z,11.53
2019-02-24T12:30:18.480Z,10.87
2019-02-24T12:32:47.936Z,11.93
2019-02-24T12:35:17.440Z,12.70
2019-02-24T12:37:46.891Z,12.30
2019-02-24T12:40:17.062Z,12.63
2019-02-24T12:42:46.542Z,12.20
2019-02-24T12:45:16.001Z,13.40
2019-02-24T12:47:45.467Z,11.83
2019-02-24T12:50:16.958Z,11.53
2019-02-24T12:52:46.456Z,11.87
2019-02-24T12:55:15.974Z,11.87
2019-02-24T12:57:45.429Z,12.43
2019-02-24T13:00:26.456Z,11.90
2019-02-24T13:02:56.030Z,12.63
2019-02-24T13:05:25.508Z,12.50
2019-02-24T13:07:54.959Z,12.80
2019-02-24T13:10:24.460Z,13.30
2019-02-24T13:12:53.949Z,13.73
2019-02-24T13:15:23.422Z,12.70
2019-02-24T13:17:52.942Z,15.80
2019-02-24T13:20:22.413Z,11.67
2019-02-24T13:22:52.045Z,11.40
2019-02-24T13:25:21.580Z,10.50
2019-02-24T13:27:51.059Z,11.70
2019-02-24T13:30:20.686Z,11.13
2019-02-24T13:32:51.094Z,14.37
2019-02-24T13:35:20.551Z,10.73
2019-02-24T13:37:50.036Z,12.23
2019-02-24T13:40:19.556Z,12.70
2019-02-24T13:42:49.021Z,10.20
2019-02-24T13:45:20.599Z,9.60
2019-02-24T13:47:50.053Z,10.10
2019-02-24T13:50:19.575Z,9.00
2019-02-24T13:52:49.019Z,8.60
2019-02-24T13:55:18.483Z,8.27
2019-02-24T13:57:47.975Z,7.53
2019-02-24T14:00:23.726Z,8.77
2019-02-24T14:02:53.204Z,8.27
2019-02-24T14:05:22.664Z,9.53
2019-02-24T14:07:52.147Z,7.13
2019-02-24T14:10:21.592Z,8.60
2019-02-24T14:12:51.119Z,11.03
2019-02-24T14:15:20.571Z,26.87
2019-02-24T14:17:50.086Z,22.50
2019-02-24T14:20:20.140Z,20.43
2019-02-24T14:22:49.597Z,13.37
2019-02-24T14:25:19.060Z,12.80
2019-02-24T14:27:49.534Z,9.70
2019-02-24T14:30:19.765Z,10.20
2019-02-24T14:32:49.223Z,13.87
2019-02-24T14:35:26.978Z,15.27
2019-02-24T14:37:56.446Z,11.30
2019-02-24T14:40:25.901Z,12.03
2019-02-24T14:42:55.393Z,12.97
2019-02-24T14:45:25.683Z,10.37
2019-02-24T14:47:55.170Z,7.63
2019-02-24T14:50:24.634Z,8.90
2019-02-24T14:52:54.092Z,13.80
2019-02-24T14:55:23.559Z,19.03
2019-02-24T14:57:53.006Z,11.20
2019-02-24T15:00:25.778Z,11.53
2019-02-24T15:02:55.225Z,17.13
2019-02-24T15:05:24.684Z,13.47
2019-02-24T15:07:54.163Z,12.83
2019-02-24T15:10:25.219Z,10.70
2019-02-24T15:12:54.665Z,12.63
2019-02-24T15:15:34.458Z,9.43
2019-02-24T15:18:03.973Z,11.30
2019-02-24T15:20:33.435Z,10.60
2019-02-24T15:23:03.187Z,10.90
2019-02-24T15:25:32.654Z,11.87
2019-02-24T15:28:02.091Z,22.20
2019-02-24T15:30:36.961Z,12.63
2019-02-24T15:33:06.554Z,13.73
2019-02-24T15:35:36.081Z,12.57
2019-02-24T15:38:05.785Z,9.53
2019-02-24T15:40:35.243Z,11.60
2019-02-24T15:43:04.766Z,11.33
2019-02-24T15:45:34.340Z,14.73
2019-02-24T15:48:03.787Z,11.77
2019-02-24T15:50:33.237Z,12.10
2019-02-24T15:53:02.703Z,14.90
2019-02-24T15:55:32.170Z,12.10
2019-02-24T15:58:01.613Z,12.23
2019-02-24T16:00:31.394Z,14.57
2019-02-24T16:03:01.970Z,13.90
2019-02-24T16:05:31.684Z,15.30
2019-02-24T16:08:01.171Z,15.17
2019-02-24T16:10:30.635Z,17.50
2019-02-24T16:13:00.091Z,21.90
2019-02-24T16:15:30.143Z,22.90
2019-02-24T16:17:59.614Z,20.23
2019-02-24T16:20:36.049Z,22.77
2019-02-24T16:23:05.525Z,23.60
2019-02-24T16:25:34.974Z,23.10
2019-02-24T16:28:04.475Z,21.17
2019-02-24T16:30:33.938Z,18.10
2019-02-24T16:33:10.310Z,20.10
2019-02-24T16:35:34.588Z,21.07
2019-02-24T16:38:04.041Z,19.07
2019-02-24T16:40:33.480Z,18.40
2019-02-24T16:43:02.972Z,22.53
2019-02-24T16:45:32.452Z,20.37
2019-02-24T16:48:01.900Z,21.37
2019-02-24T16:50:31.402Z,21.83
2019-02-24T16:53:00.862Z,21.13
2019-02-24T16:55:30.360Z,19.27
2019-02-24T16:57:59.816Z,21.47
2019-02-24T17:00:30.308Z,24.13
2019-02-24T17:02:59.865Z,24.93
2019-02-24T17:05:29.583Z,27.80
2019-02-24T17:07:59.070Z,26.40
2019-02-24T17:10:29.823Z,24.30
2019-02-24T17:12:59.292Z,17.40
2019-02-24T17:15:28.732Z,19.90
2019-02-24T17:17:58.205Z,18.53
2019-02-24T17:20:31.625Z,23.17
2019-02-24T17:23:01.067Z,28.30
2019-02-24T17:25:30.558Z,28.03
2019-02-24T17:28:00.051Z,41.13
2019-02-24T17:30:29.513Z,34.53
2019-02-24T17:32:59.000Z,37.00
2019-02-24T17:35:28.439Z,40.33
2019-02-24T17:37:57.967Z,35.37
2019-02-24T17:40:27.434Z,32.90
2019-02-24T17:42:56.892Z,29.30
2019-02-24T17:45:26.387Z,31.00
2019-02-24T17:47:55.870Z,27.10
2019-02-24T17:50:25.355Z,27.43
2019-02-24T17:52:54.839Z,30.67
2019-02-24T17:55:24.287Z,38.40
2019-02-24T17:57:53.761Z,36.57
2019-02-24T18:00:32.782Z,43.07
2019-02-24T18:03:02.243Z,50.57
2019-02-24T18:05:31.884Z,48.83
2019-02-24T18:08:01.398Z,58.90
2019-02-24T18:10:30.835Z,51.80
2019-02-24T18:13:00.342Z,75.53
2019-02-24T18:15:29.804Z,49.90
2019-02-24T18:17:59.259Z,62.13
2019-02-24T18:20:28.798Z,69.17
2019-02-24T18:22:59.597Z,62.10
2019-02-24T18:25:29.112Z,46.50
2019-02-24T18:27:58.619Z,57.10
2019-02-24T18:30:31.942Z,49.67
2019-02-24T18:33:01.399Z,42.17
2019-02-24T18:35:30.889Z,40.70
2019-02-24T18:38:00.339Z,38.80
2019-02-24T18:40:29.797Z,43.03
2019-02-24T18:43:00.585Z,41.80
2019-02-24T18:45:30.233Z,47.87
2019-02-24T18:47:59.708Z,52.87
2019-02-24T18:50:29.347Z,42.03
2019-02-24T18:52:58.795Z,36.60
2019-02-24T18:55:28.263Z,36.90
2019-02-24T18:57:57.741Z,42.07
2019-02-24T19:00:27.197Z,39.00
2019-02-24T19:02:56.670Z,35.17
2019-02-24T19:05:26.179Z,36.83
2019-02-24T19:07:55.644Z,35.70
2019-02-24T19:10:25.261Z,34.83
2019-02-24T19:12:54.728Z,34.87
2019-02-24T19:15:25.416Z,38.53
2019-02-24T19:17:54.893Z,31.90
2019-02-24T19:20:25.261Z,31.30
2019-02-24T19:22:54.745Z,28.47
2019-02-24T19:25:24.310Z,28.93
2019-02-24T19:27:55.551Z,22.97
2019-02-24T19:30:25.011Z,22.53
2019-02-24T19:32:54.496Z,22.33
2019-02-24T19:35:23.969Z,23.20
2019-02-24T19:37:53.475Z,30.23
2019-02-24T19:40:23.345Z,33.37
2019-02-24T19:42:52.824Z,35.07
2019-02-24T19:45:25.462Z,38.90
2019-02-24T19:47:54.953Z,37.83
2019-02-24T19:50:24.678Z,50.43
2019-02-24T19:52:54.135Z,26.60
2019-02-24T19:55:23.616Z,19.93
2019-02-24T19:57:53.063Z,41.80
2019-02-24T20:00:25.502Z,40.70
2019-02-24T20:02:54.989Z,28.40
2019-02-24T20:05:24.454Z,25.30
2019-02-24T20:07:53.915Z,20.90
2019-02-24T20:10:26.690Z,17.20
2019-02-24T20:12:56.135Z,18.00
2019-02-24T20:15:25.595Z,17.53
2019-02-24T20:17:56.528Z,18.50
2019-02-24T20:20:25.996Z,16.83
2019-02-24T20:22:55.491Z,24.47
2019-02-24T20:25:25.133Z,19.93
2019-02-24T20:27:54.644Z,19.30
2019-02-24T20:30:34.234Z,19.17
2019-02-24T20:33:03.703Z,18.43
2019-02-24T20:35:33.188Z,17.30
2019-02-24T20:38:02.650Z,17.00
2019-02-24T20:40:32.101Z,16.50
2019-02-24T20:43:01.596Z,15.83
2019-02-24T20:45:32.316Z,17.20
2019-02-24T20:48:01.762Z,14.53
2019-02-24T20:50:35.904Z,16.37
2019-02-24T20:53:05.692Z,15.23
2019-02-24T20:55:35.200Z,18.30
2019-02-24T20:58:04.818Z,15.50
2019-02-24T21:00:45.263Z,16.00
2019-02-24T21:03:14.960Z,16.30
2019-02-24T21:05:44.410Z,15.90
2019-02-24T21:08:13.935Z,15.90
2019-02-24T21:10:45.940Z,15.93
2019-02-24T21:13:16.822Z,15.03
2019-02-24T21:15:46.436Z,15.47
2019-02-24T21:18:15.925Z,16.57
2019-02-24T21:20:45.359Z,15.60
2019-02-24T21:23:14.822Z,15.50
2019-02-24T21:25:44.296Z,15.70
2019-02-24T21:28:13.758Z,16.03
2019-02-24T21:30:43.218Z,14.77
2019-02-24T21:33:12.694Z,15.10
2019-02-24T21:35:42.223Z,16.30
2019-02-24T21:38:11.689Z,14.77
2019-02-24T21:40:41.179Z,15.17
2019-02-24T21:43:10.624Z,14.73
2019-02-24T21:45:41.528Z,18.37
2019-02-24T21:48:11.505Z,19.73
2019-02-24T21:50:41.026Z,19.30
2019-02-24T21:53:10.489Z,18.17
2019-02-24T21:55:39.982Z,17.67
2019-02-24T21:58:09.440Z,18.03
2019-02-24T22:00:38.891Z,18.70
2019-02-24T22:03:08.379Z,16.93
2019-02-24T22:05:37.841Z,17.43
2019-02-24T22:08:07.355Z,14.70
2019-02-24T22:10:36.851Z,13.60
2019-02-24T22:13:06.302Z,13.70
2019-02-24T22:15:35.760Z,12.77
2019-02-24T22:18:05.284Z,13.17
2019-02-24T22:20:34.695Z,14.53
2019-02-24T22:23:06.049Z,14.67
2019-02-24T22:25:35.657Z,14.60
2019-02-24T22:28:05.118Z,12.97
2019-02-24T22:30:35.545Z,13.30
2019-02-24T22:33:05.035Z,14.30
2019-02-24T22:35:34.492Z,11.60
2019-02-24T22:38:03.952Z,11.73
2019-02-24T22:40:33.454Z,13.30
2019-02-24T22:43:02.906Z,13.10
2019-02-24T22:45:32.360Z,12.77
2019-02-24T22:48:03.184Z,12.93
2019-02-24T22:50:32.765Z,12.20
2019-02-24T22:53:02.213Z,14.17
2019-02-24T22:55:33.308Z,14.10
2019-02-24T22:58:02.759Z,13.00
2019-02-24T23:00:53.545Z,14.50
2019-02-24T23:03:26.984Z,13.30
2019-02-24T23:05:56.600Z,14.50
2019-02-24T23:08:26.070Z,13.57
2019-02-24T23:10:55.529Z,13.77
2019-02-24T23:13:24.973Z,13.83
2019-02-24T23:15:54.472Z,12.90
2019-02-24T23:18:23.964Z,12.27
2019-02-24T23:20:53.404Z,11.13
2019-02-24T23:23:22.883Z,13.27
2019-02-24T23:25:52.427Z,12.57
2019-02-24T23:28:21.865Z,12.83
2019-02-24T23:30:51.340Z,12.97
2019-02-24T23:33:20.790Z,12.73
2019-02-24T23:35:50.243Z,13.43
2019-02-24T23:38:19.856Z,16.30
2019-02-24T23:40:49.321Z,13.80
2019-02-24T23:43:18.802Z,14.20
2019-02-24T23:45:48.285Z,14.77
2019-02-24T23:48:17.729Z,14.90
2019-02-24T23:50:47.178Z,14.57
2019-02-24T23:53:16.660Z,13.60
2019-02-24T23:55:46.119Z,12.93
2019-02-24T23:58:15.592Z,12.30
